createdAt,value
2022-12-26T00:01:13.269Z,19.93
2022-12-26T00:03:41.763Z,18.50
2022-12-26T00:06:16.396Z,23.87
2022-12-26T00:08:45.293Z,20.00
2022-12-26T00:11:14.114Z,19.83
2022-12-26T00:13:43.104Z,21.80
2022-12-26T00:16:13.876Z,22.73
2022-12-26T00:18:43.051Z,18.03
2022-12-26T00:21:13.475Z,21.17
2022-12-26T00:23:43.907Z,24.87
2022-12-26T00:26:14.608Z,19.03
2022-12-26T00:28:43.528Z,19.53
2022-12-26T00:31:13.758Z,18.10
2022-12-26T00:33:42.433Z,24.40
2022-12-26T00:36:13.690Z,22.50
2022-12-26T00:38:44.477Z,16.87
2022-12-26T00:41:14.154Z,17.00
2022-12-26T00:43:42.822Z,22.10
2022-12-26T00:46:11.671Z,18.83
2022-12-26T00:48:40.036Z,22.65
2022-12-26T00:51:08.392Z,21.90
2022-12-26T00:53:36.935Z,20.67
2022-12-26T00:56:06.985Z,19.50
2022-12-26T00:58:35.427Z,23.90
2022-12-26T01:01:08.638Z,17.00
2022-12-26T01:03:37.036Z,18.57
2022-12-26T01:06:06.130Z,20.03
2022-12-26T01:08:34.389Z,24.77
2022-12-26T01:11:07.588Z,22.87
2022-12-26T01:13:36.666Z,24.47
2022-12-26T01:16:06.340Z,33.23
2022-12-26T01:18:35.979Z,25.93
2022-12-26T01:21:06.716Z,25.87
2022-12-26T01:23:35.140Z,24.97
2022-12-26T01:26:17.738Z,27.90
2022-12-26T01:28:49.862Z,25.20
2022-12-26T01:31:18.910Z,27.03
2022-12-26T01:33:47.316Z,34.33
2022-12-26T01:36:16.577Z,40.67
2022-12-26T01:38:45.248Z,57.75
2022-12-26T01:41:21.100Z,72.10
2022-12-26T01:43:55.285Z,53.13
2022-12-26T01:46:28.555Z,82.23
2022-12-26T01:49:00.793Z,66.47
2022-12-26T01:51:34.982Z,52.63
2022-12-26T01:54:40.937Z,52.83
2022-12-26T01:56:55.349Z,64.83
2022-12-26T01:59:27.955Z,75.23
2022-12-26T02:01:56.986Z,72.40
2022-12-26T02:04:52.569Z,88.57
2022-12-26T02:07:21.144Z,64.73
2022-12-26T02:09:49.571Z,31.03
2022-12-26T02:12:37.405Z,42.73
2022-12-26T02:15:12.530Z,35.10
2022-12-26T02:17:41.501Z,48.70
2022-12-26T02:20:19.899Z,58.90
2022-12-26T02:23:28.932Z,57.80
2022-12-26T02:26:26.552Z,37.13
2022-12-26T02:29:24.424Z,33.03
2022-12-26T02:32:01.383Z,31.80
2022-12-26T02:34:37.198Z,27.47
2022-12-26T02:37:23.374Z,35.53
2022-12-26T02:40:09.901Z,36.80
2022-12-26T02:42:48.909Z,24.98
2022-12-26T02:45:43.433Z,21.73
2022-12-26T02:48:18.251Z,24.93
2022-12-26T02:51:17.783Z,20.17
2022-12-26T02:54:11.438Z,19.10
2022-12-26T02:57:01.752Z,19.80
2022-12-26T02:59:57.374Z,17.63
2022-12-26T03:02:48.903Z,19.27
2022-12-26T03:05:51.840Z,19.30
2022-12-26T03:08:43.550Z,20.52
2022-12-26T03:11:29.592Z,20.03
2022-12-26T03:14:08.915Z,18.17
2022-12-26T03:16:54.782Z,20.60
2022-12-26T03:19:27.157Z,17.27
2022-12-26T03:21:58.619Z,15.27
2022-12-26T03:24:48.029Z,14.07
2022-12-26T03:27:15.305Z,15.20
2022-12-26T03:30:01.000Z,17.23
2022-12-26T03:32:29.310Z,15.43
2022-12-26T03:34:57.587Z,17.02
2022-12-26T03:37:50.389Z,15.63
2022-12-26T03:40:51.721Z,16.73
2022-12-26T03:43:46.097Z,17.30
2022-12-26T03:46:45.607Z,17.45
2022-12-26T03:49:39.858Z,18.23
2022-12-26T03:52:34.179Z,16.60
2022-12-26T03:55:29.409Z,16.47
2022-12-26T03:58:24.115Z,17.17
2022-12-26T04:01:13.027Z,14.40
2022-12-26T04:04:01.224Z,17.27
2022-12-26T04:06:52.601Z,16.80
2022-12-26T04:09:43.541Z,20.30
2022-12-26T04:12:36.048Z,13.73
2022-12-26T04:15:25.188Z,18.50
2022-12-26T04:18:16.602Z,17.90
2022-12-26T04:20:50.067Z,20.73
2022-12-26T04:23:41.042Z,19.27
2022-12-26T04:26:31.011Z,13.90
2022-12-26T04:29:18.265Z,17.57
2022-12-26T04:32:10.824Z,15.53
2022-12-26T04:35:03.058Z,18.13
2022-12-26T04:37:50.786Z,16.87
2022-12-26T04:40:42.084Z,13.67
2022-12-26T04:43:49.424Z,14.40
2022-12-26T04:46:20.608Z,15.40
2022-12-26T04:49:13.969Z,13.57
2022-12-26T04:51:42.218Z,11.93
2022-12-26T04:54:10.602Z,13.27
2022-12-26T04:56:39.081Z,17.38
2022-12-26T04:59:07.439Z,13.20
2022-12-26T05:01:54.656Z,13.13
2022-12-26T05:04:40.527Z,14.60
2022-12-26T05:07:33.560Z,14.03
2022-12-26T05:10:01.892Z,14.07
2022-12-26T05:12:30.170Z,12.80
2022-12-26T05:14:58.437Z,17.77
2022-12-26T05:17:45.984Z,16.83
2022-12-26T05:20:46.596Z,17.10
2022-12-26T05:23:38.764Z,15.52
2022-12-26T05:26:24.936Z,14.43
2022-12-26T05:28:57.000Z,20.27
2022-12-26T05:31:29.785Z,14.43
2022-12-26T05:34:07.847Z,17.27
2022-12-26T05:36:39.793Z,14.77
2022-12-26T05:39:09.322Z,17.03
2022-12-26T05:41:38.306Z,14.70
2022-12-26T05:44:06.888Z,16.07
2022-12-26T05:46:35.411Z,19.30
2022-12-26T05:49:06.055Z,15.17
2022-12-26T05:51:34.288Z,16.50
2022-12-26T05:54:02.589Z,15.80
2022-12-26T05:56:31.100Z,19.83
2022-12-26T05:59:01.212Z,18.87
2022-12-26T06:01:31.040Z,17.37
2022-12-26T06:04:01.284Z,21.17
2022-12-26T06:06:31.003Z,21.33
2022-12-26T06:08:59.339Z,16.17
2022-12-26T06:11:28.425Z,15.27
2022-12-26T06:13:57.009Z,19.63
2022-12-26T06:16:25.465Z,19.77
2022-12-26T06:18:55.504Z,20.23
2022-12-26T06:21:24.451Z,17.00
2022-12-26T06:23:54.111Z,18.60
2022-12-26T06:26:22.436Z,20.65
2022-12-26T06:28:50.736Z,17.90
2022-12-26T06:31:21.379Z,19.13
2022-12-26T06:33:51.567Z,18.63
2022-12-26T06:36:22.213Z,20.00
2022-12-26T06:38:51.621Z,20.08
2022-12-26T06:41:23.587Z,20.97
2022-12-26T06:43:52.165Z,24.47
2022-12-26T06:46:22.422Z,18.47
2022-12-26T06:48:50.876Z,21.47
2022-12-26T06:51:21.129Z,26.75
2022-12-26T06:54:02.864Z,22.97
2022-12-26T06:56:34.318Z,21.37
2022-12-26T06:59:04.798Z,22.30
2022-12-26T07:01:36.011Z,24.77
2022-12-26T07:04:04.832Z,25.47
2022-12-26T07:06:34.662Z,22.83
2022-12-26T07:09:05.194Z,28.10
2022-12-26T07:11:36.836Z,24.93
2022-12-26T07:14:05.796Z,25.47
2022-12-26T07:16:35.834Z,26.27
2022-12-26T07:19:04.295Z,27.83
2022-12-26T07:21:39.777Z,38.13
2022-12-26T07:24:14.886Z,34.60
2022-12-26T07:26:45.079Z,30.93
2022-12-26T07:29:16.724Z,33.63
2022-12-26T07:31:45.321Z,32.20
2022-12-26T07:34:13.598Z,29.60
2022-12-26T07:36:42.371Z,27.30
2022-12-26T07:39:10.836Z,29.77
2022-12-26T07:41:56.652Z,25.10
2022-12-26T07:44:26.817Z,31.38
2022-12-26T07:46:55.633Z,25.00
2022-12-26T07:49:24.285Z,24.37
2022-12-26T07:51:53.373Z,24.10
2022-12-26T07:54:21.874Z,24.77
2022-12-26T07:56:50.297Z,26.33
2022-12-26T07:59:19.384Z,28.37
2022-12-26T08:01:49.353Z,27.07
2022-12-26T08:04:20.742Z,22.63
2022-12-26T08:06:49.062Z,28.73
2022-12-26T08:09:17.595Z,32.17
2022-12-26T08:11:46.269Z,32.83
2022-12-26T08:14:16.805Z,34.07
2022-12-26T08:16:51.177Z,31.63
2022-12-26T08:19:22.730Z,38.77
2022-12-26T08:21:50.971Z,37.33
2022-12-26T08:24:19.428Z,39.60
2022-12-26T08:26:47.713Z,37.97
2022-12-26T08:29:16.101Z,40.47
2022-12-26T08:31:44.365Z,37.20
2022-12-26T08:34:39.876Z,33.57
2022-12-26T08:38:15.340Z,31.70
2022-12-26T08:40:45.204Z,31.30
2022-12-26T08:46:03.896Z,28.93
2022-12-26T08:48:32.921Z,25.60
2022-12-26T08:51:02.871Z,29.23
2022-12-26T08:53:35.812Z,28.63
2022-12-26T08:56:07.200Z,28.37
2022-12-26T08:58:35.930Z,29.37
2022-12-26T09:01:09.123Z,26.57
2022-12-26T09:03:37.497Z,26.60
2022-12-26T09:06:06.742Z,28.90
2022-12-26T09:08:36.422Z,21.30
2022-12-26T09:11:07.672Z,13.60
2022-12-26T09:13:36.806Z,14.20
2022-12-26T09:16:10.315Z,16.93
2022-12-26T09:18:39.066Z,17.57
2022-12-26T09:21:09.495Z,14.53
2022-12-26T09:23:38.865Z,17.23
2022-12-26T09:26:11.196Z,13.33
2022-12-26T09:28:39.849Z,10.57
2022-12-26T09:31:11.671Z,7.23
2022-12-26T09:33:40.283Z,6.20
2022-12-26T09:36:14.816Z,6.53
2022-12-26T09:38:43.940Z,7.20
2022-12-26T09:41:38.669Z,8.37
2022-12-26T09:44:16.412Z,8.67
2022-12-26T09:46:54.020Z,8.37
2022-12-26T09:49:25.438Z,8.10
2022-12-26T09:51:57.501Z,8.00
2022-12-26T09:54:32.876Z,8.97
2022-12-26T09:57:09.890Z,9.97
2022-12-26T09:59:48.244Z,8.40
2022-12-26T10:02:22.603Z,6.70
2022-12-26T10:04:51.619Z,8.90
2022-12-26T10:07:26.886Z,8.97
2022-12-26T10:10:06.175Z,12.37
2022-12-26T10:12:56.554Z,9.70
2022-12-26T10:15:45.078Z,8.57
2022-12-26T10:18:34.418Z,7.77
2022-12-26T10:21:19.342Z,8.23
2022-12-26T10:23:50.413Z,7.47
2022-12-26T10:26:22.761Z,9.33
2022-12-26T10:28:58.630Z,7.87
2022-12-26T10:31:31.224Z,7.37
2022-12-26T10:34:09.219Z,7.13
2022-12-26T10:36:43.063Z,7.77
2022-12-26T10:39:23.753Z,12.17
2022-12-26T10:41:54.700Z,13.00
2022-12-26T10:44:27.899Z,9.57
2022-12-26T10:47:19.259Z,9.23
2022-12-26T10:49:50.090Z,9.90
2022-12-26T10:52:21.307Z,11.93
2022-12-26T10:55:28.492Z,9.60
2022-12-26T10:57:45.916Z,7.50
2022-12-26T11:00:21.344Z,9.95
2022-12-26T11:03:05.494Z,8.43
2022-12-26T11:08:29.936Z,11.53
2022-12-26T11:11:07.600Z,10.77
2022-12-26T11:13:41.132Z,10.93
2022-12-26T11:16:11.441Z,12.00
2022-12-26T11:18:48.428Z,12.57
2022-12-26T11:21:24.010Z,8.77
2022-12-26T11:23:53.572Z,9.63
2022-12-26T11:26:49.558Z,10.57
2022-12-26T11:29:26.151Z,10.13
2022-12-26T11:32:01.678Z,9.57
2022-12-26T11:34:34.610Z,12.17
2022-12-26T11:37:03.315Z,11.37
2022-12-26T11:39:34.485Z,9.80
2022-12-26T11:42:09.989Z,12.63
2022-12-26T11:44:42.126Z,10.23
2022-12-26T11:47:14.686Z,14.93
2022-12-26T11:49:50.725Z,11.73
2022-12-26T11:52:37.536Z,9.83
2022-12-26T11:55:31.249Z,12.02
2022-12-26T11:58:02.006Z,9.60
2022-12-26T12:00:30.973Z,11.60
2022-12-26T12:03:00.790Z,12.07
2022-12-26T12:05:42.014Z,13.40
2022-12-26T12:08:36.601Z,11.37
2022-12-26T12:11:23.440Z,10.20
2022-12-26T12:14:15.883Z,11.67
2022-12-26T12:16:57.848Z,12.73
2022-12-26T12:19:39.107Z,11.13
2022-12-26T12:22:24.880Z,14.80
2022-12-26T12:25:09.733Z,13.77
2022-12-26T12:27:43.905Z,9.20
2022-12-26T12:30:19.492Z,10.03
2022-12-26T12:33:11.635Z,10.80
2022-12-26T12:35:54.668Z,12.33
2022-12-26T12:38:35.340Z,13.87
2022-12-26T12:41:35.297Z,10.97
2022-12-26T12:44:09.188Z,11.17
2022-12-26T12:46:47.020Z,11.27
2022-12-26T12:49:28.972Z,14.13
2022-12-26T12:52:06.414Z,14.53
2022-12-26T12:54:59.181Z,10.80
2022-12-26T12:57:34.689Z,17.73
2022-12-26T13:00:15.503Z,17.33
2022-12-26T13:02:48.768Z,11.13
2022-12-26T13:05:23.695Z,9.80
2022-12-26T13:07:58.315Z,12.50
2022-12-26T13:10:30.530Z,11.57
2022-12-26T13:13:00.283Z,13.77
2022-12-26T13:15:36.953Z,13.60
2022-12-26T13:18:11.571Z,13.63
2022-12-26T13:20:43.685Z,11.43
2022-12-26T13:23:38.570Z,11.93
2022-12-26T13:26:20.287Z,11.60
2022-12-26T13:28:59.775Z,17.93
2022-12-26T13:31:35.041Z,12.53
2022-12-26T13:34:04.232Z,11.50
2022-12-26T13:36:45.104Z,9.30
2022-12-26T13:39:38.114Z,14.45
2022-12-26T13:42:44.831Z,13.43
2022-12-26T13:46:01.157Z,16.48
2022-12-26T13:48:56.174Z,17.25
2022-12-26T13:51:48.201Z,14.10
2022-12-26T13:54:18.119Z,13.52
2022-12-26T13:57:12.286Z,11.52
2022-12-26T13:59:45.808Z,16.42
2022-12-26T14:02:58.747Z,14.75
2022-12-26T14:05:31.704Z,15.10
2022-12-26T14:08:07.838Z,14.23
2022-12-26T14:10:44.204Z,20.37
2022-12-26T14:13:34.835Z,16.07
2022-12-26T14:16:09.600Z,15.20
2022-12-26T14:18:46.478Z,18.27
2022-12-26T14:21:37.990Z,21.43
2022-12-26T14:24:19.769Z,23.93
2022-12-26T14:26:57.424Z,21.13
2022-12-26T14:29:32.773Z,18.57
2022-12-26T14:32:16.876Z,14.47
2022-12-26T14:34:58.905Z,20.10
2022-12-26T14:37:36.516Z,18.90
2022-12-26T14:40:19.864Z,21.57
2022-12-26T14:43:14.840Z,18.93
2022-12-26T14:45:51.016Z,21.70
2022-12-26T14:48:52.333Z,17.03
2022-12-26T14:51:33.988Z,18.17
2022-12-26T14:54:37.238Z,15.20
2022-12-26T14:57:44.519Z,20.57
2022-12-26T15:00:25.388Z,20.27
2022-12-26T15:07:23.093Z,21.20
2022-12-26T15:10:34.123Z,19.47
2022-12-26T15:13:43.886Z,20.50
2022-12-26T15:16:24.602Z,19.23
2022-12-26T15:19:42.450Z,20.93
2022-12-26T15:22:52.299Z,20.33
2022-12-26T15:26:05.235Z,20.83
2022-12-26T15:28:55.471Z,22.87
2022-12-26T15:31:46.865Z,26.57
2022-12-26T15:34:56.551Z,21.53
2022-12-26T15:37:39.951Z,20.27
2022-12-26T15:40:15.984Z,21.57
2022-12-26T15:42:57.124Z,22.67
2022-12-26T15:45:34.596Z,24.67
2022-12-26T15:48:12.014Z,25.50
2022-12-26T15:50:53.168Z,23.70
2022-12-26T15:53:33.526Z,19.30
2022-12-26T15:56:36.021Z,23.57
2022-12-26T15:59:30.487Z,25.73
2022-12-26T16:01:59.409Z,32.20
2022-12-26T16:04:34.633Z,27.67
2022-12-26T16:07:24.451Z,31.27
2022-12-26T16:09:54.836Z,30.83
2022-12-26T16:12:28.787Z,28.47
2022-12-26T16:15:16.423Z,27.77
2022-12-26T16:17:46.686Z,28.63
2022-12-26T16:20:42.008Z,22.87
2022-12-26T16:23:15.288Z,21.43
2022-12-26T16:25:50.594Z,24.77
2022-12-26T16:28:27.654Z,22.10
2022-12-26T16:30:57.933Z,23.50
2022-12-26T16:33:27.153Z,26.10
2022-12-26T16:36:00.956Z,23.13
2022-12-26T16:38:32.654Z,26.47
2022-12-26T16:41:01.040Z,28.57
2022-12-26T16:43:30.955Z,20.77
2022-12-26T16:46:02.834Z,24.50
2022-12-26T16:48:33.295Z,24.90
2022-12-26T16:51:05.129Z,25.87
2022-12-26T16:53:46.186Z,24.03
2022-12-26T16:56:27.772Z,31.90
2022-12-26T16:59:04.101Z,27.70
2022-12-26T17:01:34.711Z,32.03
2022-12-26T17:04:06.035Z,25.63
2022-12-26T17:06:39.029Z,27.40
2022-12-26T17:09:10.717Z,35.00
2022-12-26T17:11:51.973Z,33.60
2022-12-26T17:14:24.692Z,32.37
2022-12-26T17:16:59.063Z,27.87
2022-12-26T17:19:30.193Z,22.83
2022-12-26T17:22:31.758Z,28.50
2022-12-26T17:25:23.163Z,28.40
2022-12-26T17:28:25.212Z,25.83
2022-12-26T17:30:54.531Z,23.77
2022-12-26T17:33:41.433Z,26.10
2022-12-26T17:37:19.890Z,24.00
2022-12-26T17:40:21.688Z,31.92
2022-12-26T17:42:52.889Z,25.30
2022-12-26T17:45:24.730Z,22.73
2022-12-26T17:47:53.403Z,28.67
2022-12-26T17:50:22.284Z,28.43
2022-12-26T17:52:50.886Z,25.47
2022-12-26T17:55:22.989Z,27.57
2022-12-26T17:57:51.321Z,23.87
2022-12-26T18:00:23.215Z,23.83
2022-12-26T18:02:51.983Z,28.00
2022-12-26T18:05:21.803Z,26.53
2022-12-26T18:07:53.144Z,28.13
2022-12-26T18:10:23.673Z,25.83
2022-12-26T18:12:55.110Z,27.63
2022-12-26T18:15:25.988Z,27.13
2022-12-26T18:17:54.527Z,30.80
2022-12-26T18:20:24.677Z,28.03
2022-12-26T18:22:53.037Z,28.13
2022-12-26T18:25:23.893Z,25.70
2022-12-26T18:27:53.619Z,27.70
2022-12-26T18:30:25.123Z,28.97
2022-12-26T18:32:54.883Z,31.03
2022-12-26T18:35:23.734Z,32.40
2022-12-26T18:37:54.041Z,30.80
2022-12-26T18:40:33.083Z,28.80
2022-12-26T18:43:01.941Z,30.30
2022-12-26T18:45:32.077Z,28.40
2022-12-26T18:48:01.013Z,30.05
2022-12-26T18:50:30.296Z,31.10
2022-12-26T18:52:58.721Z,27.73
2022-12-26T18:55:28.247Z,27.43
2022-12-26T18:57:56.716Z,22.47
2022-12-26T19:00:27.482Z,25.27
2022-12-26T19:02:57.484Z,25.27
2022-12-26T19:05:27.541Z,28.97
2022-12-26T19:07:56.076Z,31.03
2022-12-26T19:10:27.359Z,29.50
2022-12-26T19:13:02.820Z,28.17
2022-12-26T19:15:33.334Z,28.10
2022-12-26T19:18:03.352Z,26.60
2022-12-26T19:20:31.777Z,28.27
2022-12-26T19:23:00.062Z,31.00
2022-12-26T19:25:29.165Z,30.53
2022-12-26T19:27:58.600Z,28.13
2022-12-26T19:30:33.687Z,31.90
2022-12-26T19:33:08.357Z,25.67
2022-12-26T19:35:36.617Z,26.93
2022-12-26T19:38:05.141Z,26.57
2022-12-26T19:40:33.486Z,29.40
2022-12-26T19:43:01.696Z,26.20
2022-12-26T19:45:30.041Z,27.23
2022-12-26T19:47:58.557Z,29.10
2022-12-26T19:50:28.279Z,29.90
2022-12-26T19:52:56.596Z,28.90
2022-12-26T19:55:30.529Z,23.23
2022-12-26T19:57:58.743Z,29.67
2022-12-26T20:00:27.068Z,28.03
2022-12-26T20:02:55.419Z,28.23
2022-12-26T20:05:23.849Z,25.87
2022-12-26T20:07:53.586Z,28.50
2022-12-26T20:10:21.860Z,26.20
2022-12-26T20:12:50.171Z,32.20
2022-12-26T20:15:18.479Z,29.30
2022-12-26T20:17:48.084Z,29.07
2022-12-26T20:20:37.116Z,26.37
2022-12-26T20:23:06.801Z,29.70
2022-12-26T20:25:36.342Z,29.47
2022-12-26T20:28:04.640Z,26.00
2022-12-26T20:30:32.937Z,27.43
2022-12-26T20:33:01.297Z,28.30
2022-12-26T20:35:32.449Z,35.58
2022-12-26T20:38:00.940Z,25.00
2022-12-26T20:40:30.618Z,25.10
2022-12-26T20:42:58.892Z,27.07
2022-12-26T20:45:27.157Z,31.90
2022-12-26T20:47:55.501Z,28.05
2022-12-26T20:50:24.000Z,24.90
2022-12-26T20:52:52.260Z,27.13
2022-12-26T20:55:20.483Z,24.80
2022-12-26T20:57:50.158Z,25.77
2022-12-26T21:00:18.978Z,27.67
2022-12-26T21:02:47.471Z,25.83
2022-12-26T21:05:15.993Z,27.07
2022-12-26T21:07:45.005Z,25.67
2022-12-26T21:10:14.735Z,25.00
2022-12-26T21:12:43.102Z,24.20
2022-12-26T21:15:12.867Z,22.67
2022-12-26T21:17:41.158Z,21.83
2022-12-26T21:20:10.297Z,24.50
2022-12-26T21:22:38.755Z,28.55
2022-12-26T21:25:07.921Z,29.37
2022-12-26T21:27:39.170Z,28.60
2022-12-26T21:30:10.551Z,33.17
2022-12-26T21:32:40.212Z,26.47
2022-12-26T21:35:08.867Z,28.67
2022-12-26T21:37:52.625Z,29.63
2022-12-26T21:40:23.100Z,26.00
2022-12-26T21:42:51.394Z,29.83
2022-12-26T21:45:19.797Z,29.57
2022-12-26T21:47:49.469Z,32.35
2022-12-26T21:50:17.858Z,26.57
2022-12-26T21:52:46.098Z,29.00
2022-12-26T21:55:28.185Z,28.37
2022-12-26T21:57:57.233Z,30.97
2022-12-26T22:00:25.743Z,30.45
2022-12-26T22:03:12.523Z,26.50
2022-12-26T22:05:42.629Z,27.87
2022-12-26T22:08:12.387Z,27.70
2022-12-26T22:11:01.122Z,26.27
2022-12-26T22:13:32.227Z,28.80
2022-12-26T22:16:07.590Z,30.13
2022-12-26T22:18:39.857Z,24.73
2022-12-26T22:21:10.560Z,24.37
2022-12-26T22:23:39.598Z,28.23
2022-12-26T22:26:09.071Z,24.87
2022-12-26T22:28:37.411Z,30.67
2022-12-26T22:31:08.376Z,24.90
2022-12-26T22:33:38.048Z,26.37
2022-12-26T22:36:07.711Z,25.70
2022-12-26T22:38:36.491Z,27.53
2022-12-26T22:41:08.229Z,24.97
2022-12-26T22:43:37.228Z,27.60
2022-12-26T22:46:05.697Z,27.80
2022-12-26T22:48:34.102Z,27.83
2022-12-26T22:51:03.877Z,26.90
2022-12-26T22:53:32.586Z,25.93
2022-12-26T22:56:02.775Z,26.53
2022-12-26T22:58:32.789Z,21.83
2022-12-26T23:01:01.359Z,28.00
2022-12-26T23:03:30.552Z,25.10
2022-12-26T23:05:59.400Z,25.93
2022-12-26T23:08:29.827Z,25.63
2022-12-26T23:10:59.658Z,27.63
2022-12-26T23:13:28.394Z,27.73
2022-12-26T23:16:00.641Z,22.77
2022-12-26T23:18:53.631Z,26.00
2022-12-26T23:21:43.143Z,26.87
2022-12-26T23:24:16.802Z,27.25
2022-12-26T23:26:48.149Z,23.47
2022-12-26T23:29:35.823Z,26.47
2022-12-26T23:32:04.448Z,27.27
2022-12-26T23:34:32.792Z,24.63
2022-12-26T23:37:01.180Z,21.90
2022-12-26T23:39:31.128Z,27.80
2022-12-26T23:41:59.410Z,24.63
2022-12-26T23:44:27.683Z,21.90
2022-12-26T23:46:56.021Z,26.30
2022-12-26T23:49:24.305Z,26.48
2022-12-26T23:51:52.578Z,23.00
2022-12-26T23:54:20.872Z,24.70
2022-12-26T23:56:50.551Z,24.43
2022-12-26T23:59:19.102Z,24.47
